메인 페이지
METAR-TAF:

METAR-TAF

공항 :

군산공항

군산, 대한민국

위도: 35-55N, 경도: 126-37E, 고도: 10m

현재 날씨관측

예보는 3 시간 36분 전, 13:56시(UTC)에 발표되었습니다.
4kt
온도 11°C
습도 71%
기압 1018 hPa
시정: 16.1km
고도 4000ft 상공 구름 보통

METAR: RKJK 171356Z AUTO 35004KT 10SM SCT040 11/06 A3005 RMK AO2 SLP180 T01140063 FZRANO $

시각: 02:32 (17:32 UTC)

예보

예보는 2 시간 32분 전, 15:00시(UTC)에 발표되었습니다.
예보 대상 시간: 17일 15시부터 18일 21시까지 (UTC)
북북서6kt
시정 10km 이상
맑음
전환 중
17일 19시부터 17일 20시까지 (UTC)
여러 방향의 바람 6kt
시정: 4800m
고도 3000ft 상공 구름 보통
박무
전환 중
18일 00시부터 18일 01시까지 (UTC)
북북서9kt
시정 10km 이상
고도 3000ft 상공 구름 보통
전환 중
18일 05시부터 18일 06시까지 (UTC)
북북동10kt
시정: 6000m
고도 2000ft 상공 구름 많음
약한소나기
전환 중
18일 11시부터 18일 12시까지 (UTC)
북북동6kt
시정 10km 이상
고도 2000ft 상공 구름 보통

TAF: RKJK 171500Z 1715/1821 33006KT 9999 SKC QNH2997INS BECMG 1719/1720 VRB06KT 4800 BR SCT030 QNH3003INS BECMG 1800/1801 34009KT 9999 NSW SCT030 QNH3004INS BECMG 1805/1806 03010KT 6000 -SHRA BKN020 610603 QNH3010INS BECMG 1811/1812 03006KT 9999 NSW SCT020 QNH3012INS TX20/1805Z TN07/1720Z

4,000개 이상의 공항 관측 자료 및 예보 (METAR 및 TAF 보고).

지도상에서 검색 가능한 기상관측소가 노란 점과 빨간 점으로 표시되어 있습니다.

기상관측소 명을 보려면 표시 위로 마우스를 이동하세요.

날씨 관측과 예보를 보려면 클릭하세요.

지도 변경 : 확대하려면 엑스 표시가 있는 녹색 버튼, 축소하려면 빼기 표시가 있는 녹색 버튼, 다음 페이지의 지도를 보려면 녹색 화살표를 클릭하세요.


METAR-TAF: